SAA234 FAOR-EGLL
Flight info
| Callsign | SAA234 |
|---|---|
| Flight time | N/A |
| Altitude | 31000 |
| Route | NESAN1A NESAN Q40 EVIPI DCT ETMIT UM214 OKLAP/N0496F300 UM214 DUSVA/N0503F320 UM214 RAPOL UA607 VOLDA/N0496F340 UA607 DIR UB730 DJA UA605 TARAT/N0483F360 UA605 CSO UM998 KAMER DCT NAFOQ DCT SURJU DCT PADKO DCT MRM DCT MTL DCT ETREK DCT MADOT DCT MOPEM DCT CACHI DCT AVLON DCT OKRIX DCT BRY DCT CLM DCT KOPOR DCT ABNUR DCT DIMAL DCT ALESO |
| Aircraft | A346/H-SDE2E3FGHIJ3J4J5M1RWXY/LB1D1 |
Departure
| Time | 2026-05-03 22:34 |
|---|---|
| Airport | O.R. Tambo International Airport (FAOR) |
Arrival
| Time | N/A |
|---|---|
| Airport | London Heathrow Airport (EGLL) |
| Time | Latitude | Longitude | Altitude | Speed | Heading |
|---|---|---|---|---|---|
| 2026-05-03 21:54 | -26.13049 | 28.23611 | 5554 ft | 0 kts | 6° |
| 2026-05-03 22:21 | -26.13051 | 28.23611 | 5556 ft | 2 kts | 6° |
| 2026-05-03 22:21 | -26.13076 | 28.23608 | 5557 ft | 4 kts | 6° |
| 2026-05-03 22:21 | -26.13097 | 28.23605 | 5555 ft | 4 kts | 14° |
| 2026-05-03 22:21 | -26.13116 | 28.23596 | 5556 ft | 4 kts | 47° |
| 2026-05-03 22:22 | -26.13119 | 28.23591 | 5556 ft | 3 kts | 60° |
| 2026-05-03 22:22 | -26.13120 | 28.23591 | 5556 ft | 0 kts | 60° |
| 2026-05-03 22:23 | -26.13119 | 28.23591 | 5556 ft | 0 kts | 60° |
| 2026-05-03 22:24 | -26.13118 | 28.23593 | 5556 ft | 0 kts | 60° |
| 2026-05-03 22:25 | -26.13118 | 28.23594 | 5556 ft | 0 kts | 66° |
| 2026-05-03 22:26 | -26.13120 | 28.23604 | 5555 ft | 5 kts | 104° |
| 2026-05-03 22:26 | -26.13131 | 28.23659 | 5556 ft | 7 kts | 97° |
| 2026-05-03 22:26 | -26.13105 | 28.23703 | 5555 ft | 8 kts | 27° |
| 2026-05-03 22:26 | -26.13056 | 28.23724 | 5554 ft | 8 kts | 17° |
| 2026-05-03 22:27 | -26.13004 | 28.23741 | 5555 ft | 8 kts | 16° |
| 2026-05-03 22:27 | -26.12950 | 28.23758 | 5555 ft | 8 kts | 16° |
| 2026-05-03 22:27 | -26.12895 | 28.23774 | 5556 ft | 8 kts | 15° |
| 2026-05-03 22:27 | -26.12839 | 28.23791 | 5556 ft | 11 kts | 15° |
| 2026-05-03 22:28 | -26.12741 | 28.23822 | 5556 ft | 17 kts | 15° |
| 2026-05-03 22:28 | -26.12622 | 28.23859 | 5553 ft | 18 kts | 15° |
| 2026-05-03 22:28 | -26.12500 | 28.23896 | 5551 ft | 18 kts | 15° |
| 2026-05-03 22:28 | -26.12380 | 28.23934 | 5550 ft | 18 kts | 15° |
| 2026-05-03 22:29 | -26.12258 | 28.23971 | 5549 ft | 18 kts | 15° |
| 2026-05-03 22:29 | -26.12133 | 28.24010 | 5546 ft | 18 kts | 15° |
| 2026-05-03 22:29 | -26.12012 | 28.24047 | 5546 ft | 18 kts | 15° |
| 2026-05-03 22:29 | -26.11886 | 28.24087 | 5536 ft | 20 kts | 15° |
| 2026-05-03 22:30 | -26.11747 | 28.24130 | 5534 ft | 21 kts | 15° |
| 2026-05-03 22:30 | -26.11609 | 28.24173 | 5534 ft | 21 kts | 15° |
| 2026-05-03 22:30 | -26.11499 | 28.24207 | 5532 ft | 15 kts | 15° |
| 2026-05-03 22:30 | -26.11396 | 28.24238 | 5532 ft | 15 kts | 15° |
| 2026-05-03 22:31 | -26.11298 | 28.24269 | 5531 ft | 15 kts | 15° |
| 2026-05-03 22:31 | -26.11192 | 28.24301 | 5526 ft | 15 kts | 15° |
| 2026-05-03 22:31 | -26.11093 | 28.24332 | 5523 ft | 15 kts | 15° |
| 2026-05-03 22:31 | -26.11016 | 28.24356 | 5522 ft | 9 kts | 15° |
| 2026-05-03 22:32 | -26.10948 | 28.24377 | 5521 ft | 11 kts | 14° |
| 2026-05-03 22:32 | -26.10865 | 28.24392 | 5519 ft | 14 kts | 14° |
| 2026-05-03 22:32 | -26.10780 | 28.24451 | 5516 ft | 14 kts | 73° |
| 2026-05-03 22:32 | -26.10799 | 28.24555 | 5516 ft | 11 kts | 105° |
| 2026-05-03 22:33 | -26.10842 | 28.24608 | 5516 ft | 7 kts | 185° |
| 2026-05-03 22:33 | -26.10897 | 28.24592 | 5516 ft | 12 kts | 194° |
| 2026-05-03 22:33 | -26.11122 | 28.24525 | 5526 ft | 57 kts | 196° |
| 2026-05-03 22:33 | -26.11678 | 28.24352 | 5537 ft | 110 kts | 195° |
| 2026-05-03 22:34 | -26.12597 | 28.24070 | 5551 ft | 159 kts | 196° |
| 2026-05-03 22:34 | -26.13841 | 28.23687 | 5570 ft | 201 kts | 196° |
| 2026-05-03 22:34 | -26.15286 | 28.23246 | 6047 ft | 202 kts | 196° |
| 2026-05-03 22:34 | -26.16627 | 28.22853 | 6705 ft | 199 kts | 197° |
| 2026-05-03 22:35 | -26.18001 | 28.22451 | 6941 ft | 206 kts | 197° |
| 2026-05-03 22:35 | -26.19469 | 28.22013 | 7165 ft | 212 kts | 197° |
| 2026-05-03 22:35 | -26.20922 | 28.21577 | 7370 ft | 219 kts | 197° |
| 2026-05-03 22:35 | -26.22436 | 28.21196 | 7584 ft | 229 kts | 183° |
| 2026-05-03 22:36 | -26.23999 | 28.21606 | 7784 ft | 237 kts | 149° |
| 2026-05-03 22:36 | -26.25154 | 28.22923 | 8009 ft | 243 kts | 116° |
| 2026-05-03 22:36 | -26.25538 | 28.24768 | 8191 ft | 250 kts | 83° |
| 2026-05-03 22:36 | -26.25095 | 28.26475 | 8360 ft | 256 kts | 56° |
| 2026-05-03 22:37 | -26.24485 | 28.27395 | 8466 ft | 260 kts | 39° |
| 2026-05-03 22:37 | -26.24247 | 28.27640 | 8491 ft | 261 kts | 33° |
| 2026-05-03 22:37 | -26.23382 | 28.28273 | 8680 ft | 265 kts | 25° |
| 2026-05-03 22:38 | -26.22886 | 28.28557 | 8762 ft | 268 kts | 22° |
| 2026-05-03 22:38 | -26.21453 | 28.29190 | 8998 ft | 275 kts | 14° |
| 2026-05-03 22:38 | -26.19715 | 28.29693 | 9362 ft | 281 kts | 10° |
| 2026-05-03 22:38 | -26.17804 | 28.30163 | 9832 ft | 285 kts | 9° |
| 2026-05-03 22:39 | -26.15876 | 28.30622 | 10351 ft | 288 kts | 9° |
| 2026-05-03 22:39 | -26.13914 | 28.31088 | 10799 ft | 293 kts | 9° |
| 2026-05-03 22:39 | -26.11899 | 28.31560 | 11031 ft | 306 kts | 9° |
| 2026-05-03 22:39 | -26.09753 | 28.31835 | 11210 ft | 316 kts | 353° |
| 2026-05-03 22:40 | -26.07557 | 28.31385 | 11475 ft | 326 kts | 345° |
| 2026-05-03 22:40 | -26.05334 | 28.30703 | 11701 ft | 339 kts | 342° |
| 2026-05-03 22:40 | -26.03065 | 28.29898 | 11923 ft | 351 kts | 341° |
| 2026-05-03 22:40 | -26.00737 | 28.29055 | 12128 ft | 363 kts | 341° |
| 2026-05-03 22:41 | -25.98329 | 28.28201 | 12366 ft | 375 kts | 341° |
| 2026-05-03 22:41 | -25.95800 | 28.27304 | 12754 ft | 380 kts | 342° |
| 2026-05-03 22:41 | -25.93327 | 28.26421 | 13237 ft | 383 kts | 342° |
| 2026-05-03 22:41 | -25.90742 | 28.25498 | 13707 ft | 387 kts | 342° |
| 2026-05-03 22:42 | -25.88211 | 28.24595 | 14140 ft | 392 kts | 342° |
| 2026-05-03 22:42 | -25.85617 | 28.23673 | 14527 ft | 395 kts | 342° |
| 2026-05-03 22:42 | -25.82992 | 28.22745 | 14955 ft | 397 kts | 342° |
| 2026-05-03 22:42 | -25.80395 | 28.21834 | 15418 ft | 399 kts | 342° |
| 2026-05-03 22:43 | -25.77745 | 28.20912 | 15862 ft | 400 kts | 342° |
| 2026-05-03 22:43 | -25.75091 | 28.19998 | 16304 ft | 402 kts | 342° |
| 2026-05-03 22:43 | -25.72413 | 28.19083 | 16641 ft | 404 kts | 342° |
| 2026-05-03 22:43 | -25.69726 | 28.18170 | 17076 ft | 406 kts | 342° |
| 2026-05-03 22:44 | -25.67003 | 28.17251 | 17516 ft | 407 kts | 342° |
| 2026-05-03 22:44 | -25.64342 | 28.16362 | 17946 ft | 409 kts | 342° |
| 2026-05-03 22:44 | -25.61603 | 28.15455 | 18375 ft | 411 kts | 342° |
| 2026-05-03 22:44 | -25.58822 | 28.14544 | 18768 ft | 413 kts | 342° |
| 2026-05-03 22:45 | -25.56057 | 28.13643 | 19128 ft | 415 kts | 342° |
| 2026-05-03 22:45 | -25.53321 | 28.12753 | 19481 ft | 416 kts | 342° |
| 2026-05-03 22:45 | -25.50525 | 28.11804 | 19872 ft | 418 kts | 340° |
| 2026-05-03 22:45 | -25.47756 | 28.10717 | 20234 ft | 419 kts | 339° |
| 2026-05-03 22:46 | -25.45005 | 28.09626 | 20586 ft | 421 kts | 339° |
| 2026-05-03 22:46 | -25.42247 | 28.08504 | 20954 ft | 423 kts | 338° |
| 2026-05-03 22:46 | -25.39484 | 28.07355 | 21304 ft | 425 kts | 338° |
| 2026-05-03 22:46 | -25.36708 | 28.06183 | 21669 ft | 427 kts | 338° |
| 2026-05-03 22:47 | -25.33923 | 28.04999 | 22007 ft | 430 kts | 338° |
| 2026-05-03 22:47 | -25.31125 | 28.03804 | 22362 ft | 432 kts | 338° |
| 2026-05-03 22:47 | -25.28319 | 28.02604 | 22726 ft | 434 kts | 338° |
| 2026-05-03 22:47 | -25.25491 | 28.01394 | 23086 ft | 436 kts | 338° |
| 2026-05-03 22:48 | -25.22653 | 28.00179 | 23437 ft | 438 kts | 338° |
| 2026-05-03 22:48 | -25.19805 | 27.98961 | 23770 ft | 440 kts | 338° |
| 2026-05-03 22:48 | -25.16938 | 27.97735 | 24086 ft | 442 kts | 338° |
| 2026-05-03 22:48 | -25.14110 | 27.96525 | 24371 ft | 444 kts | 338° |
| 2026-05-03 22:49 | -25.11183 | 27.95274 | 24628 ft | 446 kts | 338° |
| 2026-05-03 22:49 | -25.08314 | 27.94048 | 24910 ft | 448 kts | 338° |
| 2026-05-03 22:49 | -25.05402 | 27.92804 | 25182 ft | 451 kts | 338° |
| 2026-05-03 22:49 | -25.02471 | 27.91554 | 25455 ft | 453 kts | 338° |
| 2026-05-03 22:50 | -24.99527 | 27.90299 | 25723 ft | 455 kts | 338° |
| 2026-05-03 22:50 | -24.96572 | 27.89039 | 25991 ft | 457 kts | 338° |
| 2026-05-03 22:50 | -24.93594 | 27.87770 | 26253 ft | 459 kts | 338° |
| 2026-05-03 22:50 | -24.90590 | 27.86516 | 26504 ft | 462 kts | 339° |
| 2026-05-03 22:51 | -24.87511 | 27.85451 | 26762 ft | 465 kts | 343° |
| 2026-05-03 22:51 | -24.84357 | 27.84626 | 27012 ft | 468 kts | 347° |
| 2026-05-03 22:51 | -24.81135 | 27.84049 | 27268 ft | 471 kts | 351° |
| 2026-05-03 22:51 | -24.77884 | 27.83601 | 27524 ft | 473 kts | 351° |
| 2026-05-03 22:52 | -24.74607 | 27.83166 | 27778 ft | 475 kts | 351° |
| 2026-05-03 22:52 | -24.71315 | 27.82731 | 28016 ft | 477 kts | 351° |
| 2026-05-03 22:52 | -24.68009 | 27.82293 | 28238 ft | 479 kts | 351° |
| 2026-05-03 22:52 | -24.64696 | 27.81852 | 28491 ft | 481 kts | 351° |
| 2026-05-03 22:53 | -24.61375 | 27.81409 | 28826 ft | 480 kts | 351° |
| 2026-05-03 22:53 | -24.58057 | 27.80966 | 29194 ft | 479 kts | 351° |
| 2026-05-03 22:53 | -24.54746 | 27.80523 | 29555 ft | 478 kts | 351° |
| 2026-05-03 22:53 | -24.51445 | 27.80082 | 29907 ft | 478 kts | 351° |
| 2026-05-03 22:54 | -24.48183 | 27.79645 | 30242 ft | 478 kts | 351° |
| 2026-05-03 22:54 | -24.44885 | 27.79204 | 30523 ft | 477 kts | 351° |
| 2026-05-03 22:54 | -24.41583 | 27.78762 | 30771 ft | 477 kts | 351° |
| 2026-05-03 22:54 | -24.38297 | 27.78322 | 31054 ft | 476 kts | 351° |
| 2026-05-03 22:55 | -24.34998 | 27.77882 | 31326 ft | 476 kts | 351° |
| 2026-05-03 22:55 | -24.31720 | 27.77445 | 31609 ft | 475 kts | 351° |
| 2026-05-03 22:55 | -24.28428 | 27.77006 | 31895 ft | 474 kts | 351° |
| 2026-05-03 22:55 | -24.25151 | 27.76569 | 32156 ft | 474 kts | 351° |
| 2026-05-03 22:56 | -24.22986 | 27.76280 | 32330 ft | 473 kts | 351° |
| 2026-05-03 22:56 | -24.19670 | 27.75838 | 32575 ft | 473 kts | 351° |
| 2026-05-03 22:56 | -24.16407 | 27.75403 | 32767 ft | 474 kts | 351° |
| 2026-05-03 22:56 | -24.13133 | 27.74966 | 32956 ft | 475 kts | 350° |
| 2026-05-03 22:57 | -24.09852 | 27.74529 | 33156 ft | 475 kts | 350° |
| 2026-05-03 22:57 | -24.06568 | 27.74092 | 33366 ft | 475 kts | 350° |
| 2026-05-03 22:57 | -24.03323 | 27.73660 | 33548 ft | 476 kts | 350° |
| 2026-05-03 22:57 | -23.99984 | 27.73216 | 33732 ft | 477 kts | 350° |
| 2026-05-03 22:58 | -23.96696 | 27.72779 | 33908 ft | 477 kts | 350° |
| 2026-05-03 22:58 | -23.93404 | 27.72342 | 34091 ft | 478 kts | 350° |
| 2026-05-03 22:58 | -23.90096 | 27.71903 | 34185 ft | 479 kts | 350° |
| 2026-05-03 22:59 | -23.83526 | 27.71032 | 34177 ft | 479 kts | 350° |
| 2026-05-03 22:59 | -23.76914 | 27.70155 | 34177 ft | 479 kts | 350° |
| 2026-05-03 23:00 | -23.70287 | 27.69278 | 34173 ft | 479 kts | 350° |
| 2026-05-03 23:00 | -23.63885 | 27.68432 | 34173 ft | 479 kts | 350° |
| 2026-05-03 23:01 | -23.57260 | 27.67558 | 34160 ft | 479 kts | 350° |
| 2026-05-03 23:01 | -23.50650 | 27.66686 | 34163 ft | 478 kts | 350° |
| 2026-05-03 23:02 | -23.44035 | 27.65814 | 34160 ft | 478 kts | 350° |
| 2026-05-03 23:02 | -23.37369 | 27.64938 | 34154 ft | 478 kts | 350° |
| 2026-05-03 23:02 | -23.34060 | 27.64497 | 34031 ft | 480 kts | 350° |
| 2026-05-03 23:03 | -23.30747 | 27.64075 | 34107 ft | 479 kts | 350° |
| 2026-05-03 23:03 | -23.24187 | 27.63218 | 34143 ft | 478 kts | 349° |
| 2026-05-03 23:04 | -23.17571 | 27.62418 | 34149 ft | 478 kts | 351° |
| 2026-05-03 23:04 | -23.10949 | 27.61778 | 34145 ft | 478 kts | 352° |
| 2026-05-03 23:05 | -23.04270 | 27.61136 | 34140 ft | 478 kts | 352° |
| 2026-05-03 23:05 | -22.97666 | 27.60493 | 34143 ft | 478 kts | 351° |
| 2026-05-03 23:06 | -22.91046 | 27.59842 | 34143 ft | 478 kts | 351° |
| 2026-05-03 23:06 | -22.84426 | 27.59189 | 34146 ft | 478 kts | 351° |
| 2026-05-03 23:07 | -22.77796 | 27.58537 | 34144 ft | 478 kts | 351° |
| 2026-05-03 23:07 | -22.71173 | 27.57886 | 34142 ft | 478 kts | 351° |
| 2026-05-03 23:08 | -22.64551 | 27.57236 | 34144 ft | 478 kts | 351° |
| 2026-05-03 23:08 | -22.57917 | 27.56585 | 34144 ft | 478 kts | 351° |
| 2026-05-03 23:09 | -22.51295 | 27.55936 | 34141 ft | 478 kts | 351° |
| 2026-05-03 23:09 | -22.44700 | 27.55292 | 34140 ft | 479 kts | 351° |
| 2026-05-03 23:10 | -22.38055 | 27.54641 | 34142 ft | 480 kts | 351° |
| 2026-05-03 23:10 | -22.31394 | 27.53991 | 34142 ft | 480 kts | 351° |
| 2026-05-03 23:11 | -22.24744 | 27.53342 | 34141 ft | 480 kts | 351° |
| 2026-05-03 23:11 | -22.18083 | 27.52693 | 34134 ft | 480 kts | 351° |
| 2026-05-03 23:12 | -22.11438 | 27.52048 | 34137 ft | 479 kts | 351° |
| 2026-05-03 23:12 | -22.04797 | 27.51403 | 34136 ft | 479 kts | 351° |
| 2026-05-03 23:13 | -21.98158 | 27.50758 | 34135 ft | 479 kts | 351° |
| 2026-05-03 23:13 | -21.91484 | 27.50373 | 34138 ft | 481 kts | 354° |
| 2026-05-03 23:14 | -21.84808 | 27.50105 | 34132 ft | 479 kts | 354° |
| 2026-05-03 23:14 | -21.78141 | 27.49838 | 34134 ft | 479 kts | 354° |
| 2026-05-03 23:15 | -21.71476 | 27.49570 | 34132 ft | 479 kts | 354° |
| 2026-05-03 23:15 | -21.64813 | 27.49304 | 34131 ft | 479 kts | 354° |
| 2026-05-03 23:16 | -21.58143 | 27.49038 | 34125 ft | 477 kts | 354° |
| 2026-05-03 23:16 | -21.51513 | 27.48774 | 34132 ft | 476 kts | 354° |
| 2026-05-03 23:17 | -21.44888 | 27.48510 | 34132 ft | 476 kts | 354° |
| 2026-05-03 23:17 | -21.38267 | 27.48247 | 34130 ft | 476 kts | 354° |
| 2026-05-03 23:18 | -21.31691 | 27.47987 | 34125 ft | 476 kts | 354° |
| 2026-05-03 23:18 | -21.25086 | 27.47727 | 34130 ft | 474 kts | 354° |
| 2026-05-03 23:19 | -21.18508 | 27.47286 | 34129 ft | 472 kts | 350° |
| 2026-05-03 23:19 | -21.12012 | 27.46184 | 34129 ft | 473 kts | 345° |
| 2026-05-03 23:20 | -21.05619 | 27.44526 | 34127 ft | 472 kts | 342° |
| 2026-05-03 23:20 | -20.99267 | 27.42825 | 34125 ft | 470 kts | 342° |
| 2026-05-03 23:21 | -20.92922 | 27.41130 | 34132 ft | 469 kts | 342° |
| 2026-05-03 23:21 | -20.86587 | 27.39439 | 34118 ft | 469 kts | 342° |
| 2026-05-03 23:22 | -20.77082 | 27.36907 | 34119 ft | 469 kts | 342° |
| 2026-05-03 23:22 | -20.70753 | 27.35224 | 34118 ft | 467 kts | 342° |
| 2026-05-03 23:23 | -20.64497 | 27.33561 | 34117 ft | 466 kts | 342° |
| 2026-05-03 23:23 | -20.58190 | 27.31885 | 34122 ft | 466 kts | 342° |
| 2026-05-03 23:24 | -20.51895 | 27.30214 | 34127 ft | 466 kts | 342° |
| 2026-05-03 23:24 | -20.45590 | 27.28542 | 34119 ft | 466 kts | 342° |
| 2026-05-03 23:25 | -20.39312 | 27.26879 | 34126 ft | 464 kts | 342° |
| 2026-05-03 23:25 | -20.33031 | 27.25217 | 34125 ft | 464 kts | 342° |
| 2026-05-03 23:26 | -20.26746 | 27.23555 | 34125 ft | 464 kts | 342° |
| 2026-05-03 23:26 | -20.20473 | 27.21899 | 34119 ft | 464 kts | 342° |
| 2026-05-03 23:27 | -20.14190 | 27.20241 | 34107 ft | 465 kts | 343° |
| 2026-05-03 23:27 | -20.07916 | 27.18587 | 34113 ft | 465 kts | 343° |
| 2026-05-03 23:28 | -20.01638 | 27.16937 | 34125 ft | 465 kts | 343° |
| 2026-05-03 23:28 | -19.95393 | 27.15293 | 34123 ft | 467 kts | 343° |
| 2026-05-03 23:29 | -19.89065 | 27.13622 | 34113 ft | 467 kts | 343° |
| 2026-05-03 23:29 | -19.82756 | 27.11958 | 34114 ft | 467 kts | 343° |
| 2026-05-03 23:30 | -19.76445 | 27.10298 | 34112 ft | 467 kts | 343° |
| 2026-05-03 23:30 | -19.70134 | 27.08639 | 34110 ft | 467 kts | 343° |
| 2026-05-03 23:31 | -19.63813 | 27.06979 | 34116 ft | 467 kts | 343° |
| 2026-05-03 23:31 | -19.57545 | 27.05334 | 34105 ft | 467 kts | 343° |
| 2026-05-03 23:32 | -19.51235 | 27.03681 | 34108 ft | 467 kts | 343° |
| 2026-05-03 23:32 | -19.44915 | 27.02027 | 34108 ft | 467 kts | 343° |
| 2026-05-03 23:33 | -19.38603 | 27.00374 | 34110 ft | 467 kts | 343° |
| 2026-05-03 23:33 | -19.32306 | 26.98726 | 34106 ft | 467 kts | 343° |
| 2026-05-03 23:34 | -19.25996 | 26.97077 | 34104 ft | 467 kts | 343° |
| 2026-05-03 23:34 | -19.19676 | 26.95430 | 34102 ft | 467 kts | 343° |
| 2026-05-03 23:35 | -19.13356 | 26.93786 | 34103 ft | 467 kts | 343° |
| 2026-05-03 23:35 | -19.07044 | 26.92142 | 34101 ft | 467 kts | 343° |
| 2026-05-03 23:36 | -19.00731 | 26.90493 | 34094 ft | 467 kts | 343° |
| 2026-05-03 23:36 | -18.94434 | 26.88851 | 34101 ft | 467 kts | 343° |
| 2026-05-03 23:37 | -18.88126 | 26.87214 | 34101 ft | 467 kts | 343° |
| 2026-05-03 23:37 | -18.81806 | 26.85576 | 34101 ft | 469 kts | 343° |
| 2026-05-03 23:38 | -18.75468 | 26.83931 | 34099 ft | 469 kts | 343° |
| 2026-05-03 23:38 | -18.69136 | 26.82288 | 34090 ft | 469 kts | 343° |
| 2026-05-03 23:39 | -18.62850 | 26.80663 | 34092 ft | 469 kts | 343° |
| 2026-05-03 23:39 | -18.56514 | 26.79023 | 34090 ft | 469 kts | 343° |
| 2026-05-03 23:40 | -18.50169 | 26.77376 | 34083 ft | 469 kts | 343° |
| 2026-05-03 23:40 | -18.43835 | 26.75737 | 34080 ft | 469 kts | 343° |
| 2026-05-03 23:41 | -18.38565 | 26.74372 | 34064 ft | 470 kts | 344° |
| 2026-05-03 23:41 | -18.32194 | 26.72728 | 34070 ft | 471 kts | 344° |
| 2026-05-03 23:42 | -18.25840 | 26.71090 | 34059 ft | 471 kts | 344° |
| 2026-05-03 23:42 | -18.19469 | 26.69449 | 34060 ft | 471 kts | 344° |
| 2026-05-03 23:43 | -18.13103 | 26.67810 | 34052 ft | 471 kts | 344° |
| 2026-05-03 23:43 | -18.06717 | 26.66167 | 34069 ft | 474 kts | 344° |
| 2026-05-03 23:44 | -18.00309 | 26.64518 | 34054 ft | 474 kts | 344° |
| 2026-05-03 23:44 | -17.93905 | 26.62869 | 34059 ft | 474 kts | 344° |
| 2026-05-03 23:45 | -17.87504 | 26.61223 | 34062 ft | 474 kts | 344° |
| 2026-05-03 23:45 | -17.81096 | 26.59577 | 34070 ft | 475 kts | 345° |
| 2026-05-03 23:46 | -17.74669 | 26.57929 | 34070 ft | 475 kts | 345° |
| 2026-05-03 23:46 | -17.68240 | 26.56282 | 34093 ft | 475 kts | 344° |
| 2026-05-03 23:47 | -17.61812 | 26.54637 | 34079 ft | 475 kts | 344° |
| 2026-05-03 23:47 | -17.55388 | 26.52993 | 34101 ft | 475 kts | 344° |
| 2026-05-03 23:48 | -17.48998 | 26.51357 | 34096 ft | 477 kts | 345° |
| 2026-05-03 23:48 | -17.42544 | 26.49709 | 34103 ft | 477 kts | 345° |
| 2026-05-03 23:49 | -17.36091 | 26.48063 | 34099 ft | 477 kts | 345° |
| 2026-05-03 23:49 | -17.29644 | 26.46420 | 34106 ft | 477 kts | 345° |
| 2026-05-03 23:50 | -17.23188 | 26.44774 | 34104 ft | 477 kts | 345° |
| 2026-05-03 23:50 | -17.16741 | 26.43047 | 34112 ft | 479 kts | 344° |
| 2026-05-03 23:51 | -17.10283 | 26.41291 | 34109 ft | 479 kts | 344° |
| 2026-05-03 23:51 | -17.03829 | 26.39546 | 34107 ft | 479 kts | 344° |
| 2026-05-03 23:52 | -16.97381 | 26.37810 | 34098 ft | 479 kts | 344° |
| 2026-05-03 23:52 | -16.90925 | 26.36073 | 34102 ft | 479 kts | 344° |
| 2026-05-03 23:53 | -16.84464 | 26.34338 | 34101 ft | 479 kts | 344° |
| 2026-05-03 23:53 | -16.78007 | 26.32603 | 34102 ft | 479 kts | 344° |
| 2026-05-03 23:54 | -16.71586 | 26.30857 | 34095 ft | 479 kts | 344° |
| 2026-05-03 23:54 | -16.65133 | 26.29102 | 34102 ft | 479 kts | 344° |
| 2026-05-03 23:55 | -16.58666 | 26.27345 | 34096 ft | 481 kts | 344° |
| 2026-05-03 23:55 | -16.52173 | 26.25587 | 34094 ft | 481 kts | 344° |
| 2026-05-03 23:56 | -16.45692 | 26.23834 | 34094 ft | 481 kts | 344° |
| 2026-05-03 23:56 | -16.39219 | 26.22083 | 34090 ft | 480 kts | 344° |
| 2026-05-03 23:57 | -16.32748 | 26.20333 | 34088 ft | 481 kts | 344° |
| 2026-05-03 23:57 | -16.26260 | 26.18580 | 34082 ft | 482 kts | 344° |
| 2026-05-03 23:58 | -16.19754 | 26.16825 | 34086 ft | 483 kts | 344° |
| 2026-05-03 23:58 | -16.13296 | 26.15083 | 34087 ft | 483 kts | 344° |
| 2026-05-03 23:59 | -16.06786 | 26.13329 | 34086 ft | 483 kts | 344° |
| 2026-05-03 23:59 | -16.00273 | 26.11574 | 34083 ft | 484 kts | 344° |
| 2026-05-04 00:00 | -15.93753 | 26.09820 | 34086 ft | 484 kts | 344° |
| 2026-05-04 00:00 | -15.87227 | 26.08065 | 34085 ft | 484 kts | 344° |
| 2026-05-04 00:01 | -15.80698 | 26.06310 | 34084 ft | 484 kts | 344° |
| 2026-05-04 00:01 | -15.74150 | 26.04551 | 34082 ft | 485 kts | 344° |
| 2026-05-04 00:02 | -15.67615 | 26.02796 | 34074 ft | 486 kts | 344° |
| 2026-05-04 00:02 | -15.61067 | 26.01040 | 34081 ft | 486 kts | 344° |
| 2026-05-04 00:03 | -15.54528 | 25.99288 | 34083 ft | 486 kts | 344° |
| 2026-05-04 00:03 | -15.48009 | 25.97543 | 34078 ft | 486 kts | 344° |
| 2026-05-04 00:04 | -15.41458 | 25.95792 | 34076 ft | 486 kts | 344° |
| 2026-05-04 00:04 | -15.34891 | 25.94034 | 34076 ft | 487 kts | 344° |
| 2026-05-04 00:05 | -15.28329 | 25.92278 | 34080 ft | 487 kts | 344° |
| 2026-05-04 00:05 | -15.21763 | 25.90525 | 34074 ft | 487 kts | 344° |
| 2026-05-04 00:06 | -15.15192 | 25.88774 | 34076 ft | 487 kts | 344° |
| 2026-05-04 00:06 | -15.08613 | 25.87021 | 34072 ft | 488 kts | 345° |
| 2026-05-04 00:07 | -15.02043 | 25.85271 | 34077 ft | 488 kts | 345° |
| 2026-05-04 00:07 | -14.95467 | 25.83523 | 34077 ft | 488 kts | 345° |
| 2026-05-04 00:08 | -14.88887 | 25.81774 | 34075 ft | 488 kts | 345° |
| 2026-05-04 00:08 | -14.82340 | 25.80035 | 34076 ft | 488 kts | 345° |
| 2026-05-04 00:09 | -14.75761 | 25.78288 | 34078 ft | 488 kts | 345° |
| 2026-05-04 00:09 | -14.69184 | 25.76543 | 34076 ft | 487 kts | 345° |
| 2026-05-04 00:10 | -14.62617 | 25.74803 | 34079 ft | 487 kts | 345° |
| 2026-05-04 00:10 | -14.56049 | 25.73063 | 34080 ft | 487 kts | 345° |
| 2026-05-04 00:11 | -14.49475 | 25.71322 | 34079 ft | 487 kts | 345° |
| 2026-05-04 00:11 | -14.42906 | 25.69584 | 34079 ft | 485 kts | 345° |
| 2026-05-04 00:12 | -14.36361 | 25.67853 | 34079 ft | 485 kts | 345° |
| 2026-05-04 00:12 | -14.29822 | 25.66124 | 34079 ft | 485 kts | 345° |
| 2026-05-04 00:13 | -14.23276 | 25.64395 | 34076 ft | 485 kts | 345° |
| 2026-05-04 00:13 | -14.16718 | 25.62662 | 34069 ft | 488 kts | 345° |
| 2026-05-04 00:14 | -14.10153 | 25.60931 | 34071 ft | 486 kts | 345° |
| 2026-05-04 00:14 | -14.03597 | 25.59203 | 34071 ft | 486 kts | 345° |
| 2026-05-04 00:15 | -13.97051 | 25.57478 | 34071 ft | 486 kts | 345° |
| 2026-05-04 00:15 | -13.90525 | 25.55759 | 34066 ft | 486 kts | 345° |
| 2026-05-04 00:16 | -13.83962 | 25.54032 | 34065 ft | 486 kts | 345° |
| 2026-05-04 00:16 | -13.77407 | 25.52308 | 34063 ft | 486 kts | 345° |
| 2026-05-04 00:17 | -13.70842 | 25.50583 | 34062 ft | 486 kts | 345° |
| 2026-05-04 00:17 | -13.64287 | 25.48861 | 34064 ft | 486 kts | 345° |
| 2026-05-04 00:18 | -13.57724 | 25.47139 | 34063 ft | 486 kts | 345° |
| 2026-05-04 00:18 | -13.51170 | 25.45420 | 34053 ft | 486 kts | 345° |
| 2026-05-04 00:19 | -13.44621 | 25.43704 | 34064 ft | 485 kts | 345° |
| 2026-05-04 00:19 | -13.38130 | 25.42000 | 34057 ft | 485 kts | 345° |
| 2026-05-04 00:20 | -13.31590 | 25.40284 | 34059 ft | 485 kts | 345° |
| 2026-05-04 00:20 | -13.25044 | 25.38570 | 34055 ft | 485 kts | 345° |
| 2026-05-04 00:21 | -13.18510 | 25.36859 | 34051 ft | 484 kts | 345° |
| 2026-05-04 00:21 | -13.11974 | 25.35152 | 34053 ft | 484 kts | 345° |
| 2026-05-04 00:22 | -13.05448 | 25.33448 | 34053 ft | 484 kts | 345° |
| 2026-05-04 00:22 | -12.98932 | 25.31748 | 34050 ft | 485 kts | 345° |
| 2026-05-04 00:23 | -12.92390 | 25.30041 | 34054 ft | 485 kts | 345° |
| 2026-05-04 00:23 | -12.85820 | 25.28326 | 34052 ft | 484 kts | 345° |
| 2026-05-04 00:24 | -12.79327 | 25.26634 | 34049 ft | 484 kts | 345° |
| 2026-05-04 00:24 | -12.72799 | 25.24935 | 34045 ft | 484 kts | 345° |
| 2026-05-04 00:25 | -12.66267 | 25.23234 | 34047 ft | 484 kts | 345° |
| 2026-05-04 00:25 | -12.59739 | 25.21536 | 34055 ft | 484 kts | 345° |
| 2026-05-04 00:26 | -12.53209 | 25.19835 | 34051 ft | 484 kts | 346° |
| 2026-05-04 00:26 | -12.47771 | 25.18423 | 34051 ft | 484 kts | 346° |
| 2026-05-04 00:27 | -12.41244 | 25.16730 | 34056 ft | 484 kts | 346° |
| 2026-05-04 00:27 | -12.34710 | 25.15035 | 34055 ft | 484 kts | 346° |
| 2026-05-04 00:28 | -12.28182 | 25.13342 | 34054 ft | 484 kts | 346° |
| 2026-05-04 00:28 | -12.21645 | 25.11646 | 34052 ft | 485 kts | 346° |
| 2026-05-04 00:29 | -12.15107 | 25.09952 | 34058 ft | 485 kts | 346° |
| 2026-05-04 00:29 | -12.08599 | 25.08261 | 34061 ft | 485 kts | 346° |
| 2026-05-04 00:30 | -12.02053 | 25.06563 | 34062 ft | 485 kts | 346° |
| 2026-05-04 00:30 | -11.95515 | 25.04870 | 34069 ft | 485 kts | 346° |
| 2026-05-04 00:31 | -11.88963 | 25.03173 | 34068 ft | 486 kts | 346° |
| 2026-05-04 00:31 | -11.82407 | 25.01478 | 34071 ft | 486 kts | 346° |
| 2026-05-04 00:32 | -11.75866 | 24.99789 | 34065 ft | 486 kts | 346° |
| 2026-05-04 00:32 | -11.69301 | 24.98093 | 34065 ft | 486 kts | 346° |
| 2026-05-04 00:33 | -11.59460 | 24.95555 | 34069 ft | 486 kts | 346° |
| 2026-05-04 00:34 | -11.52897 | 24.93862 | 34068 ft | 487 kts | 346° |
| 2026-05-04 00:34 | -11.46327 | 24.92161 | 34064 ft | 487 kts | 346° |
| 2026-05-04 00:35 | -11.39766 | 24.90463 | 34059 ft | 487 kts | 346° |
| 2026-05-04 00:35 | -11.33199 | 24.88767 | 34056 ft | 487 kts | 346° |
| 2026-05-04 00:36 | -11.26677 | 24.87084 | 34055 ft | 487 kts | 346° |
| 2026-05-04 00:36 | -11.20080 | 24.85383 | 34046 ft | 488 kts | 346° |
| 2026-05-04 00:37 | -11.13498 | 24.83688 | 34052 ft | 488 kts | 346° |
| 2026-05-04 00:37 | -11.06911 | 24.81991 | 34041 ft | 488 kts | 346° |
| 2026-05-04 00:38 | -11.00328 | 24.80297 | 34040 ft | 488 kts | 346° |
| 2026-05-04 00:38 | -10.93737 | 24.78600 | 34031 ft | 488 kts | 346° |
| 2026-05-04 00:39 | -10.87151 | 24.76906 | 34028 ft | 488 kts | 346° |
| 2026-05-04 00:39 | -10.80552 | 24.75210 | 34025 ft | 488 kts | 346° |
| 2026-05-04 00:40 | -10.73955 | 24.73516 | 34026 ft | 488 kts | 346° |
| 2026-05-04 00:40 | -10.67360 | 24.71822 | 34018 ft | 488 kts | 346° |
| 2026-05-04 00:41 | -10.60761 | 24.70128 | 34023 ft | 488 kts | 346° |
| 2026-05-04 00:41 | -10.54177 | 24.68439 | 34009 ft | 488 kts | 346° |
| 2026-05-04 00:42 | -10.47589 | 24.66749 | 34012 ft | 488 kts | 346° |
| 2026-05-04 00:42 | -10.41041 | 24.65071 | 34009 ft | 488 kts | 346° |
| 2026-05-04 00:43 | -10.34442 | 24.63380 | 34008 ft | 488 kts | 346° |
| 2026-05-04 00:43 | -10.27852 | 24.61692 | 34004 ft | 488 kts | 346° |
| 2026-05-04 00:44 | -10.21275 | 24.60009 | 34007 ft | 487 kts | 346° |
| 2026-05-04 00:44 | -10.14691 | 24.58326 | 33995 ft | 487 kts | 346° |
| 2026-05-04 00:45 | -10.08104 | 24.56643 | 33994 ft | 487 kts | 346° |
| 2026-05-04 00:45 | -10.01529 | 24.54963 | 33990 ft | 487 kts | 346° |
| 2026-05-04 00:46 | -9.94968 | 24.53283 | 33986 ft | 488 kts | 346° |
| 2026-05-04 00:46 | -9.88380 | 24.51600 | 33983 ft | 488 kts | 346° |
| 2026-05-04 00:47 | -9.81790 | 24.49918 | 33978 ft | 488 kts | 346° |
| 2026-05-04 00:47 | -9.75243 | 24.48249 | 33974 ft | 488 kts | 346° |
| 2026-05-04 00:48 | -9.68660 | 24.46571 | 33975 ft | 488 kts | 346° |
| 2026-05-04 00:48 | -9.62066 | 24.44892 | 33967 ft | 488 kts | 346° |
| 2026-05-04 00:49 | -9.55490 | 24.43218 | 33969 ft | 487 kts | 346° |
| 2026-05-04 00:49 | -9.48909 | 24.41544 | 33970 ft | 487 kts | 346° |
| 2026-05-04 00:50 | -9.42379 | 24.39883 | 33969 ft | 487 kts | 346° |
| 2026-05-04 00:50 | -9.35750 | 24.38199 | 33973 ft | 487 kts | 346° |
| 2026-05-04 00:51 | -9.29179 | 24.36530 | 33971 ft | 487 kts | 346° |
| 2026-05-04 00:51 | -9.22640 | 24.34871 | 33976 ft | 487 kts | 346° |
| 2026-05-04 00:52 | -9.16076 | 24.33167 | 33976 ft | 487 kts | 346° |
| 2026-05-04 00:52 | -9.09518 | 24.31387 | 33972 ft | 487 kts | 345° |
| 2026-05-04 00:53 | -9.02960 | 24.29609 | 33972 ft | 487 kts | 346° |
| 2026-05-04 00:53 | -8.96421 | 24.27845 | 33975 ft | 487 kts | 346° |
| 2026-05-04 00:54 | -8.89860 | 24.26079 | 33974 ft | 487 kts | 346° |
| 2026-05-04 00:54 | -8.83300 | 24.24314 | 33976 ft | 487 kts | 346° |
| 2026-05-04 00:55 | -8.76747 | 24.22552 | 33975 ft | 487 kts | 346° |
| 2026-05-04 00:55 | -8.70235 | 24.20802 | 33974 ft | 487 kts | 346° |
| 2026-05-04 00:56 | -8.63682 | 24.19042 | 33978 ft | 487 kts | 346° |
| 2026-05-04 00:56 | -8.57082 | 24.17270 | 33971 ft | 487 kts | 346° |
| 2026-05-04 00:57 | -8.50577 | 24.15524 | 33970 ft | 487 kts | 346° |
| 2026-05-04 00:57 | -8.44014 | 24.13763 | 33966 ft | 487 kts | 346° |
| 2026-05-04 00:58 | -8.37454 | 24.12003 | 33962 ft | 487 kts | 346° |
| 2026-05-04 00:58 | -8.30905 | 24.10247 | 33960 ft | 487 kts | 346° |
| 2026-05-04 00:59 | -8.24348 | 24.08490 | 33959 ft | 487 kts | 346° |
| 2026-05-04 00:59 | -8.17798 | 24.06737 | 33956 ft | 487 kts | 345° |
| 2026-05-04 01:00 | -8.11239 | 24.04983 | 33959 ft | 488 kts | 345° |
| 2026-05-04 01:00 | -8.04665 | 24.03223 | 33959 ft | 488 kts | 346° |
| 2026-05-04 01:01 | -7.98061 | 24.01658 | 33955 ft | 488 kts | 347° |
| 2026-05-04 01:01 | -7.91486 | 24.00146 | 33956 ft | 488 kts | 347° |
| 2026-05-04 01:02 | -7.84872 | 23.98628 | 33944 ft | 488 kts | 347° |
| 2026-05-04 01:02 | -7.78254 | 23.97107 | 33947 ft | 488 kts | 347° |
| 2026-05-04 01:03 | -7.71635 | 23.95587 | 33945 ft | 488 kts | 347° |
| 2026-05-04 01:03 | -7.65011 | 23.94066 | 33947 ft | 488 kts | 347° |
| 2026-05-04 01:04 | -7.58395 | 23.92546 | 33943 ft | 488 kts | 347° |
| 2026-05-04 01:04 | -7.51769 | 23.91026 | 33937 ft | 488 kts | 347° |
| 2026-05-04 01:05 | -7.45135 | 23.89505 | 33937 ft | 488 kts | 348° |
| 2026-05-04 01:05 | -7.38511 | 23.87987 | 33938 ft | 488 kts | 348° |
| 2026-05-04 01:06 | -7.31875 | 23.86467 | 33929 ft | 488 kts | 348° |
| 2026-05-04 01:06 | -7.25252 | 23.84949 | 33935 ft | 488 kts | 347° |
| 2026-05-04 01:07 | -7.18687 | 23.83320 | 33928 ft | 488 kts | 346° |
| 2026-05-04 01:07 | -7.12101 | 23.81646 | 33927 ft | 489 kts | 346° |
| 2026-05-04 01:08 | -7.05501 | 23.79981 | 33930 ft | 489 kts | 346° |
| 2026-05-04 01:08 | -6.98904 | 23.78325 | 33931 ft | 488 kts | 346° |
| 2026-05-04 01:09 | -6.92301 | 23.76667 | 33918 ft | 488 kts | 347° |
| 2026-05-04 01:09 | -6.85706 | 23.75015 | 33924 ft | 489 kts | 347° |
| 2026-05-04 01:10 | -6.79092 | 23.73359 | 33922 ft | 489 kts | 347° |
| 2026-05-04 01:10 | -6.72476 | 23.71703 | 33920 ft | 490 kts | 347° |
| 2026-05-04 01:11 | -6.65867 | 23.70048 | 33919 ft | 490 kts | 347° |
| 2026-05-04 01:11 | -6.59253 | 23.68392 | 33920 ft | 490 kts | 347° |
| 2026-05-04 01:12 | -6.53751 | 23.67015 | 33919 ft | 490 kts | 347° |
| 2026-05-04 01:12 | -6.46047 | 23.65090 | 33918 ft | 490 kts | 347° |
| 2026-05-04 01:13 | -6.40501 | 23.63704 | 33916 ft | 490 kts | 347° |
| 2026-05-04 01:13 | -6.33892 | 23.62053 | 33917 ft | 490 kts | 347° |
| 2026-05-04 01:14 | -6.27321 | 23.60412 | 33917 ft | 490 kts | 347° |
| 2026-05-04 01:14 | -6.20695 | 23.58758 | 33911 ft | 490 kts | 347° |
| 2026-05-04 01:15 | -6.14079 | 23.57107 | 33912 ft | 490 kts | 347° |
| 2026-05-04 01:15 | -6.07399 | 23.55755 | 33912 ft | 489 kts | 351° |
| 2026-05-04 01:16 | -6.00677 | 23.54591 | 33918 ft | 489 kts | 351° |
| 2026-05-04 01:16 | -5.93958 | 23.53433 | 33910 ft | 489 kts | 351° |
| 2026-05-04 01:17 | -5.87250 | 23.52271 | 33904 ft | 489 kts | 351° |
| 2026-05-04 01:17 | -5.80541 | 23.51111 | 33906 ft | 489 kts | 351° |
| 2026-05-04 01:18 | -5.73834 | 23.49952 | 33909 ft | 489 kts | 351° |
| 2026-05-04 01:18 | -5.67116 | 23.48790 | 33898 ft | 489 kts | 351° |
| 2026-05-04 01:19 | -5.60397 | 23.47630 | 33902 ft | 489 kts | 351° |
| 2026-05-04 01:19 | -5.53687 | 23.46469 | 33906 ft | 489 kts | 352° |
| 2026-05-04 01:20 | -5.47011 | 23.45324 | 33898 ft | 489 kts | 352° |
| 2026-05-04 01:20 | -5.40295 | 23.44177 | 33902 ft | 489 kts | 352° |
| 2026-05-04 01:21 | -5.33584 | 23.43032 | 33909 ft | 489 kts | 352° |
| 2026-05-04 01:21 | -5.26866 | 23.41885 | 33895 ft | 489 kts | 352° |
| 2026-05-04 01:22 | -5.20144 | 23.40741 | 33899 ft | 489 kts | 352° |
| 2026-05-04 01:22 | -5.13448 | 23.39600 | 33896 ft | 488 kts | 352° |
| 2026-05-04 01:23 | -5.06740 | 23.38451 | 33902 ft | 488 kts | 352° |
| 2026-05-04 01:23 | -5.00092 | 23.37312 | 33899 ft | 488 kts | 352° |
| 2026-05-04 01:24 | -4.93351 | 23.36160 | 33900 ft | 488 kts | 352° |
| 2026-05-04 01:24 | -4.86649 | 23.35018 | 33901 ft | 488 kts | 352° |
| 2026-05-04 01:25 | -4.80013 | 23.33886 | 33901 ft | 487 kts | 352° |
| 2026-05-04 01:25 | -4.73328 | 23.32746 | 33903 ft | 487 kts | 352° |
| 2026-05-04 01:26 | -4.66652 | 23.31608 | 33908 ft | 487 kts | 352° |
| 2026-05-04 01:26 | -4.59968 | 23.30469 | 33904 ft | 487 kts | 352° |
| 2026-05-04 01:27 | -4.53280 | 23.29329 | 33904 ft | 487 kts | 352° |
| 2026-05-04 01:27 | -4.46608 | 23.28193 | 33904 ft | 486 kts | 352° |
| 2026-05-04 01:28 | -4.39932 | 23.27057 | 33904 ft | 486 kts | 352° |
| 2026-05-04 01:28 | -4.33264 | 23.25922 | 33907 ft | 486 kts | 352° |
| 2026-05-04 01:29 | -4.26587 | 23.24787 | 33907 ft | 486 kts | 352° |
| 2026-05-04 01:29 | -4.19923 | 23.23655 | 33913 ft | 486 kts | 352° |
| 2026-05-04 01:30 | -4.13260 | 23.22475 | 33905 ft | 487 kts | 349° |
| 2026-05-04 01:30 | -4.06695 | 23.20756 | 33907 ft | 488 kts | 343° |
| 2026-05-04 01:31 | -4.00324 | 23.18364 | 33910 ft | 489 kts | 338° |
| 2026-05-04 01:31 | -3.94220 | 23.15323 | 33907 ft | 490 kts | 332° |
| 2026-05-04 01:32 | -3.88315 | 23.11991 | 33913 ft | 490 kts | 332° |
| 2026-05-04 01:32 | -3.82367 | 23.08627 | 33910 ft | 491 kts | 332° |
| 2026-05-04 01:33 | -3.76408 | 23.05269 | 33914 ft | 491 kts | 332° |
| 2026-05-04 01:33 | -3.70449 | 23.01916 | 33914 ft | 491 kts | 332° |
| 2026-05-04 01:34 | -3.64507 | 22.98574 | 33911 ft | 491 kts | 332° |
| 2026-05-04 01:34 | -3.58549 | 22.95224 | 33912 ft | 491 kts | 332° |
| 2026-05-04 01:35 | -3.52617 | 22.91889 | 33916 ft | 491 kts | 332° |
| 2026-05-04 01:35 | -3.46619 | 22.88518 | 33914 ft | 491 kts | 332° |
| 2026-05-04 01:36 | -3.40696 | 22.85191 | 33911 ft | 491 kts | 332° |
| 2026-05-04 01:36 | -3.34723 | 22.81837 | 33914 ft | 491 kts | 332° |
| 2026-05-04 01:37 | -3.28756 | 22.78507 | 33915 ft | 491 kts | 332° |
| 2026-05-04 01:37 | -3.22769 | 22.75173 | 33911 ft | 492 kts | 333° |
| 2026-05-04 01:38 | -3.16789 | 22.71844 | 33910 ft | 492 kts | 332° |
| 2026-05-04 01:38 | -3.10814 | 22.68518 | 33909 ft | 492 kts | 333° |
| 2026-05-04 01:39 | -3.04817 | 22.65181 | 33907 ft | 492 kts | 333° |
| 2026-05-04 01:39 | -2.98841 | 22.61856 | 33910 ft | 492 kts | 333° |
| 2026-05-04 01:40 | -2.92845 | 22.58520 | 33914 ft | 492 kts | 333° |
| 2026-05-04 01:40 | -2.86896 | 22.55211 | 33913 ft | 492 kts | 333° |
| 2026-05-04 01:41 | -2.80912 | 22.51882 | 33921 ft | 492 kts | 333° |
| 2026-05-04 01:41 | -2.74916 | 22.48546 | 33915 ft | 493 kts | 333° |
| 2026-05-04 01:42 | -2.68909 | 22.45206 | 33907 ft | 493 kts | 333° |
| 2026-05-04 01:42 | -2.62907 | 22.41870 | 33912 ft | 494 kts | 333° |
| 2026-05-04 01:43 | -2.56892 | 22.38525 | 33916 ft | 494 kts | 333° |
| 2026-05-04 01:43 | -2.50888 | 22.35187 | 33909 ft | 493 kts | 333° |
| 2026-05-04 01:44 | -2.44881 | 22.31847 | 33906 ft | 494 kts | 333° |
| 2026-05-04 01:44 | -2.38859 | 22.28501 | 33908 ft | 494 kts | 333° |
| 2026-05-04 01:45 | -2.32835 | 22.25153 | 33911 ft | 494 kts | 333° |
| 2026-05-04 01:45 | -2.23850 | 22.20160 | 33908 ft | 494 kts | 333° |
| 2026-05-04 01:46 | -2.17838 | 22.16820 | 33906 ft | 494 kts | 333° |
| 2026-05-04 01:46 | -2.11826 | 22.13480 | 33909 ft | 494 kts | 333° |
| 2026-05-04 01:47 | -2.05817 | 22.10141 | 33906 ft | 493 kts | 333° |
| 2026-05-04 01:47 | -1.99835 | 22.06819 | 33905 ft | 493 kts | 333° |
| 2026-05-04 01:48 | -1.93833 | 22.03486 | 33902 ft | 493 kts | 333° |
| 2026-05-04 01:48 | -1.87839 | 22.00157 | 33905 ft | 493 kts | 333° |
| 2026-05-04 01:49 | -1.81853 | 21.96833 | 33904 ft | 493 kts | 333° |
| 2026-05-04 01:49 | -1.75847 | 21.93498 | 33911 ft | 493 kts | 333° |
| 2026-05-04 01:50 | -1.69862 | 21.90174 | 33907 ft | 492 kts | 333° |
| 2026-05-04 01:50 | -1.63875 | 21.86851 | 33905 ft | 492 kts | 333° |
| 2026-05-04 01:51 | -1.57932 | 21.83553 | 33903 ft | 492 kts | 333° |
| 2026-05-04 01:51 | -1.51940 | 21.80228 | 33902 ft | 492 kts | 333° |
| 2026-05-04 01:52 | -1.45957 | 21.76908 | 33903 ft | 492 kts | 333° |
| 2026-05-04 01:52 | -1.39965 | 21.73585 | 33906 ft | 492 kts | 333° |
| 2026-05-04 01:53 | -1.33957 | 21.70254 | 33905 ft | 493 kts | 333° |
| 2026-05-04 01:53 | -1.27958 | 21.66920 | 33906 ft | 493 kts | 333° |
| 2026-05-04 01:54 | -1.21949 | 21.63580 | 33903 ft | 493 kts | 333° |
| 2026-05-04 01:54 | -1.15990 | 21.60271 | 33902 ft | 493 kts | 333° |
| 2026-05-04 01:55 | -1.09970 | 21.56930 | 33905 ft | 493 kts | 333° |
| 2026-05-04 01:55 | -1.03970 | 21.53602 | 33906 ft | 493 kts | 333° |
| 2026-05-04 01:56 | -0.97980 | 21.50279 | 33906 ft | 493 kts | 333° |
| 2026-05-04 01:56 | -0.91968 | 21.46944 | 33905 ft | 493 kts | 333° |
| 2026-05-04 01:57 | -0.85965 | 21.43613 | 33902 ft | 493 kts | 333° |
| 2026-05-04 01:57 | -0.79995 | 21.40302 | 33902 ft | 493 kts | 333° |
| 2026-05-04 01:58 | -0.73993 | 21.36973 | 33906 ft | 493 kts | 333° |
| 2026-05-04 01:58 | -0.67995 | 21.33646 | 33908 ft | 493 kts | 333° |
| 2026-05-04 01:59 | -0.61999 | 21.30321 | 33904 ft | 493 kts | 333° |
| 2026-05-04 01:59 | -0.57002 | 21.27549 | 33905 ft | 493 kts | 333° |
| 2026-05-04 02:00 | -0.49997 | 21.23664 | 33907 ft | 493 kts | 333° |
| 2026-05-04 02:00 | -0.45009 | 21.20899 | 33908 ft | 493 kts | 333° |
| 2026-05-04 02:01 | -0.39004 | 21.17570 | 33908 ft | 493 kts | 333° |
| 2026-05-04 02:01 | -0.33006 | 21.14245 | 33906 ft | 493 kts | 333° |
| 2026-05-04 02:02 | -0.27004 | 21.10919 | 33907 ft | 492 kts | 333° |
| 2026-05-04 02:02 | -0.21034 | 21.07611 | 33905 ft | 492 kts | 333° |
| 2026-05-04 02:03 | -0.15039 | 21.04281 | 33907 ft | 492 kts | 333° |
| 2026-05-04 02:03 | -0.09056 | 21.00955 | 33906 ft | 492 kts | 333° |
| 2026-05-04 02:04 | -0.03080 | 20.97638 | 33902 ft | 492 kts | 333° |
| 2026-05-04 02:04 | 0.02911 | 20.94314 | 33905 ft | 493 kts | 333° |
| 2026-05-04 02:05 | 0.08911 | 20.90985 | 33908 ft | 493 kts | 333° |
| 2026-05-04 02:05 | 0.14923 | 20.87648 | 33906 ft | 493 kts | 333° |
| 2026-05-04 02:06 | 0.20935 | 20.84312 | 33906 ft | 493 kts | 333° |
| 2026-05-04 02:06 | 0.26936 | 20.80982 | 33908 ft | 493 kts | 333° |
| 2026-05-04 02:07 | 0.32937 | 20.77652 | 33906 ft | 493 kts | 333° |
| 2026-05-04 02:07 | 0.38902 | 20.74341 | 33906 ft | 494 kts | 333° |
| 2026-05-04 02:08 | 0.44915 | 20.71001 | 33903 ft | 494 kts | 333° |
| 2026-05-04 02:08 | 0.50917 | 20.67669 | 33904 ft | 494 kts | 333° |
| 2026-05-04 02:09 | 0.56933 | 20.64332 | 33905 ft | 494 kts | 333° |
| 2026-05-04 02:09 | 0.62940 | 20.60998 | 33906 ft | 494 kts | 333° |
| 2026-05-04 02:10 | 0.68943 | 20.57660 | 33906 ft | 494 kts | 333° |
| 2026-05-04 02:10 | 0.74958 | 20.54317 | 33903 ft | 494 kts | 333° |
| 2026-05-04 02:11 | 0.80981 | 20.50974 | 33902 ft | 495 kts | 333° |
| 2026-05-04 02:11 | 0.86959 | 20.47656 | 33905 ft | 495 kts | 333° |
| 2026-05-04 02:12 | 0.93017 | 20.44294 | 33906 ft | 494 kts | 332° |
| 2026-05-04 02:12 | 0.98995 | 20.40976 | 33906 ft | 494 kts | 332° |
| 2026-05-04 02:13 | 1.05007 | 20.37639 | 33907 ft | 494 kts | 332° |
| 2026-05-04 02:13 | 1.11028 | 20.34296 | 33905 ft | 495 kts | 333° |
| 2026-05-04 02:14 | 1.17047 | 20.30956 | 33906 ft | 495 kts | 333° |
| 2026-05-04 02:14 | 1.23077 | 20.27611 | 33904 ft | 495 kts | 333° |
| 2026-05-04 02:15 | 1.29101 | 20.24268 | 33905 ft | 495 kts | 333° |
| 2026-05-04 02:15 | 1.35132 | 20.20923 | 33908 ft | 495 kts | 333° |
| 2026-05-04 02:16 | 1.41152 | 20.17583 | 33905 ft | 495 kts | 333° |
| 2026-05-04 02:16 | 1.47169 | 20.14240 | 33904 ft | 495 kts | 333° |
| 2026-05-04 02:17 | 1.53141 | 20.10925 | 33908 ft | 494 kts | 333° |
| 2026-05-04 02:17 | 1.59149 | 20.07593 | 33903 ft | 494 kts | 333° |
| 2026-05-04 02:18 | 1.65167 | 20.04257 | 33906 ft | 494 kts | 333° |
| 2026-05-04 02:18 | 1.71175 | 20.00927 | 33905 ft | 494 kts | 333° |
| 2026-05-04 02:19 | 1.77174 | 19.97603 | 33902 ft | 494 kts | 333° |
| 2026-05-04 02:19 | 1.83191 | 19.94266 | 33900 ft | 494 kts | 333° |
| 2026-05-04 02:20 | 1.89203 | 19.90931 | 33902 ft | 494 kts | 333° |
| 2026-05-04 02:20 | 1.95224 | 19.87594 | 33899 ft | 494 kts | 333° |
| 2026-05-04 02:21 | 2.01234 | 19.84266 | 33903 ft | 494 kts | 333° |
| 2026-05-04 02:21 | 2.07216 | 19.80954 | 33903 ft | 494 kts | 333° |
| 2026-05-04 02:22 | 2.13271 | 19.77600 | 33905 ft | 494 kts | 333° |
| 2026-05-04 02:22 | 2.19250 | 19.74292 | 33903 ft | 495 kts | 333° |
| 2026-05-04 02:23 | 2.25292 | 19.70948 | 33905 ft | 496 kts | 333° |
| 2026-05-04 02:23 | 2.31320 | 19.67593 | 33905 ft | 496 kts | 333° |
| 2026-05-04 02:24 | 2.37339 | 19.64228 | 33904 ft | 496 kts | 333° |
| 2026-05-04 02:24 | 2.43368 | 19.60862 | 33905 ft | 496 kts | 333° |
| 2026-05-04 02:25 | 2.49392 | 19.57501 | 33907 ft | 496 kts | 333° |
| 2026-05-04 02:25 | 2.55412 | 19.54142 | 33906 ft | 495 kts | 333° |
| 2026-05-04 02:26 | 2.61430 | 19.50788 | 33905 ft | 495 kts | 333° |
| 2026-05-04 02:26 | 2.67456 | 19.47425 | 33904 ft | 495 kts | 333° |
| 2026-05-04 02:27 | 2.73473 | 19.44066 | 33904 ft | 495 kts | 333° |
| 2026-05-04 02:27 | 2.79456 | 19.40731 | 33907 ft | 495 kts | 333° |
| 2026-05-04 02:28 | 2.85490 | 19.37369 | 33910 ft | 495 kts | 333° |
| 2026-05-04 02:28 | 2.91506 | 19.34018 | 33911 ft | 494 kts | 333° |
| 2026-05-04 02:29 | 2.97512 | 19.30671 | 33906 ft | 494 kts | 333° |
| 2026-05-04 02:29 | 3.03507 | 19.27329 | 33906 ft | 494 kts | 333° |
| 2026-05-04 02:30 | 3.09520 | 19.23978 | 33904 ft | 494 kts | 333° |
| 2026-05-04 02:30 | 3.15529 | 19.20629 | 33905 ft | 494 kts | 333° |
| 2026-05-04 02:31 | 3.21540 | 19.17278 | 33908 ft | 494 kts | 333° |
| 2026-05-04 02:31 | 3.27555 | 19.13924 | 33908 ft | 494 kts | 333° |
| 2026-05-04 02:32 | 3.33562 | 19.10576 | 33908 ft | 495 kts | 333° |
| 2026-05-04 02:32 | 3.39581 | 19.07221 | 33904 ft | 495 kts | 333° |
| 2026-05-04 02:33 | 3.45610 | 19.03860 | 33906 ft | 495 kts | 333° |
| 2026-05-04 02:33 | 3.51586 | 19.00527 | 33908 ft | 495 kts | 333° |
| 2026-05-04 02:34 | 3.57606 | 18.97180 | 33908 ft | 495 kts | 333° |
| 2026-05-04 02:34 | 3.63643 | 18.93834 | 33908 ft | 495 kts | 333° |
| 2026-05-04 02:35 | 3.69671 | 18.90491 | 33905 ft | 495 kts | 333° |
| 2026-05-04 02:35 | 3.75700 | 18.87145 | 33904 ft | 495 kts | 333° |
| 2026-05-04 02:36 | 3.81729 | 18.83801 | 33905 ft | 495 kts | 333° |
| 2026-05-04 02:36 | 3.87766 | 18.80453 | 33907 ft | 495 kts | 333° |
| 2026-05-04 02:37 | 3.93804 | 18.77105 | 33909 ft | 495 kts | 333° |
| 2026-05-04 02:37 | 3.99826 | 18.73766 | 33909 ft | 494 kts | 333° |
| 2026-05-04 02:38 | 4.05779 | 18.70434 | 33905 ft | 494 kts | 332° |
| 2026-05-04 02:38 | 4.11788 | 18.67063 | 33908 ft | 494 kts | 332° |
| 2026-05-04 02:39 | 4.17789 | 18.63702 | 33901 ft | 494 kts | 332° |
| 2026-05-04 02:39 | 4.23793 | 18.60341 | 33903 ft | 494 kts | 332° |
| 2026-05-04 02:40 | 4.29797 | 18.56981 | 33903 ft | 494 kts | 332° |
| 2026-05-04 02:40 | 4.35813 | 18.53620 | 33901 ft | 494 kts | 333° |
| 2026-05-04 02:41 | 4.41988 | 18.50622 | 33918 ft | 493 kts | 337° |
| 2026-05-04 02:41 | 4.48274 | 18.47846 | 33906 ft | 493 kts | 338° |
| 2026-05-04 02:42 | 4.54552 | 18.45083 | 33904 ft | 493 kts | 338° |
| 2026-05-04 02:42 | 4.60840 | 18.42311 | 33904 ft | 493 kts | 338° |
| 2026-05-04 02:43 | 4.67121 | 18.39538 | 33916 ft | 493 kts | 338° |
| 2026-05-04 02:43 | 4.73373 | 18.36778 | 33901 ft | 493 kts | 337° |
| 2026-05-04 02:44 | 4.79663 | 18.33998 | 33902 ft | 493 kts | 337° |
| 2026-05-04 02:44 | 4.85945 | 18.31221 | 33904 ft | 493 kts | 337° |
| 2026-05-04 02:45 | 4.92225 | 18.28444 | 33911 ft | 493 kts | 337° |
| 2026-05-04 02:45 | 4.98505 | 18.25669 | 33905 ft | 493 kts | 337° |
| 2026-05-04 02:46 | 5.04792 | 18.22890 | 33918 ft | 493 kts | 337° |
| 2026-05-04 02:46 | 5.10020 | 18.20582 | 33923 ft | 493 kts | 337° |
| 2026-05-04 02:47 | 5.16303 | 18.17803 | 33908 ft | 494 kts | 337° |
| 2026-05-04 02:47 | 5.22587 | 18.15018 | 33915 ft | 494 kts | 337° |
| 2026-05-04 02:48 | 5.28871 | 18.12235 | 33915 ft | 493 kts | 337° |
| 2026-05-04 02:48 | 5.35163 | 18.09450 | 33910 ft | 493 kts | 337° |
| 2026-05-04 02:49 | 5.41454 | 18.06667 | 33924 ft | 493 kts | 337° |
| 2026-05-04 02:49 | 5.47739 | 18.03887 | 33912 ft | 494 kts | 337° |
| 2026-05-04 02:50 | 5.54030 | 18.01102 | 33922 ft | 494 kts | 337° |
| 2026-05-04 02:50 | 5.60325 | 17.98315 | 33912 ft | 494 kts | 337° |
| 2026-05-04 02:51 | 5.66617 | 17.95530 | 33909 ft | 494 kts | 337° |
| 2026-05-04 02:51 | 5.72908 | 17.92744 | 33924 ft | 494 kts | 337° |
| 2026-05-04 02:52 | 5.79211 | 17.89952 | 33913 ft | 494 kts | 337° |
| 2026-05-04 02:52 | 5.85468 | 17.87179 | 33921 ft | 495 kts | 337° |
| 2026-05-04 02:53 | 5.91787 | 17.84379 | 33906 ft | 496 kts | 337° |
| 2026-05-04 02:53 | 5.98119 | 17.81573 | 33919 ft | 496 kts | 337° |
| 2026-05-04 02:54 | 6.04428 | 17.78775 | 33904 ft | 496 kts | 337° |
| 2026-05-04 02:54 | 6.10737 | 17.75977 | 33909 ft | 496 kts | 337° |
| 2026-05-04 02:55 | 6.20166 | 17.71794 | 33897 ft | 497 kts | 337° |
| 2026-05-04 02:56 | 6.26508 | 17.68980 | 33907 ft | 498 kts | 337° |
| 2026-05-04 02:56 | 6.32842 | 17.66169 | 33893 ft | 497 kts | 337° |
| 2026-05-04 02:57 | 6.39175 | 17.63358 | 33902 ft | 498 kts | 337° |
| 2026-05-04 02:57 | 6.45527 | 17.60538 | 33904 ft | 497 kts | 337° |
| 2026-05-04 02:58 | 6.51859 | 17.57726 | 33892 ft | 497 kts | 337° |
| 2026-05-04 02:58 | 6.58197 | 17.54913 | 33894 ft | 497 kts | 337° |
| 2026-05-04 02:59 | 6.64520 | 17.52105 | 33883 ft | 497 kts | 337° |
| 2026-05-04 02:59 | 6.70798 | 17.49310 | 33899 ft | 497 kts | 337° |
| 2026-05-04 03:00 | 6.77125 | 17.46487 | 33885 ft | 497 kts | 337° |
| 2026-05-04 03:00 | 6.83442 | 17.43672 | 33896 ft | 497 kts | 337° |
| 2026-05-04 03:01 | 6.89771 | 17.40853 | 33895 ft | 497 kts | 337° |
| 2026-05-04 03:01 | 6.96099 | 17.38035 | 33882 ft | 496 kts | 337° |
| 2026-05-04 03:02 | 7.02379 | 17.35237 | 33889 ft | 496 kts | 337° |
| 2026-05-04 03:02 | 7.08692 | 17.32423 | 33879 ft | 496 kts | 337° |
| 2026-05-04 03:03 | 7.15003 | 17.29610 | 33889 ft | 496 kts | 337° |
| 2026-05-04 03:03 | 7.21325 | 17.26794 | 33890 ft | 496 kts | 337° |
| 2026-05-04 03:04 | 7.27635 | 17.23979 | 33885 ft | 496 kts | 337° |
| 2026-05-04 03:04 | 7.33950 | 17.21160 | 33886 ft | 496 kts | 337° |
| 2026-05-04 03:05 | 7.40255 | 17.18350 | 33888 ft | 496 kts | 337° |
| 2026-05-04 03:05 | 7.46572 | 17.15535 | 33885 ft | 496 kts | 337° |
| 2026-05-04 03:06 | 7.52879 | 17.12727 | 33881 ft | 496 kts | 337° |
| 2026-05-04 03:06 | 7.59186 | 17.09917 | 33878 ft | 496 kts | 337° |
| 2026-05-04 03:07 | 7.65497 | 17.07099 | 33883 ft | 498 kts | 336° |
| 2026-05-04 03:07 | 7.71854 | 17.04252 | 33878 ft | 500 kts | 337° |
| 2026-05-04 03:08 | 7.78210 | 17.01409 | 33881 ft | 500 kts | 337° |
| 2026-05-04 03:08 | 7.84563 | 16.98569 | 33879 ft | 500 kts | 337° |
| 2026-05-04 03:09 | 7.90927 | 16.95726 | 33876 ft | 500 kts | 337° |
| 2026-05-04 03:09 | 7.97253 | 16.92898 | 33873 ft | 500 kts | 337° |
| 2026-05-04 03:10 | 8.03612 | 16.90051 | 33878 ft | 500 kts | 336° |
| 2026-05-04 03:10 | 8.09978 | 16.87193 | 33877 ft | 500 kts | 336° |
| 2026-05-04 03:11 | 8.16339 | 16.84339 | 33873 ft | 501 kts | 336° |
| 2026-05-04 03:11 | 8.22713 | 16.81483 | 33873 ft | 500 kts | 336° |
| 2026-05-04 03:12 | 8.29084 | 16.78626 | 33864 ft | 501 kts | 336° |
| 2026-05-04 03:12 | 8.35448 | 16.75774 | 33870 ft | 500 kts | 336° |
| 2026-05-04 03:13 | 8.41769 | 16.72939 | 33873 ft | 501 kts | 336° |
| 2026-05-04 03:13 | 8.48145 | 16.70079 | 33865 ft | 500 kts | 336° |
| 2026-05-04 03:14 | 8.54511 | 16.67220 | 33862 ft | 501 kts | 336° |
| 2026-05-04 03:14 | 8.60891 | 16.64355 | 33875 ft | 501 kts | 336° |
| 2026-05-04 03:15 | 8.67271 | 16.61490 | 33868 ft | 501 kts | 336° |
| 2026-05-04 03:15 | 8.73641 | 16.58629 | 33866 ft | 501 kts | 336° |
| 2026-05-04 03:16 | 8.80020 | 16.55762 | 33880 ft | 502 kts | 336° |
| 2026-05-04 03:16 | 8.86414 | 16.52886 | 33877 ft | 501 kts | 336° |
| 2026-05-04 03:17 | 8.92761 | 16.50030 | 33869 ft | 503 kts | 336° |
| 2026-05-04 03:17 | 8.99143 | 16.47159 | 33878 ft | 502 kts | 336° |
| 2026-05-04 03:18 | 9.05532 | 16.44282 | 33871 ft | 503 kts | 336° |
| 2026-05-04 03:18 | 9.11911 | 16.41413 | 33864 ft | 500 kts | 336° |
| 2026-05-04 03:19 | 9.18260 | 16.38554 | 33870 ft | 500 kts | 335° |
| 2026-05-04 03:19 | 9.24609 | 16.35690 | 33867 ft | 499 kts | 336° |
| 2026-05-04 03:20 | 9.30948 | 16.32836 | 33854 ft | 498 kts | 335° |
| 2026-05-04 03:20 | 9.37281 | 16.29981 | 33854 ft | 498 kts | 335° |
| 2026-05-04 03:21 | 9.43623 | 16.27121 | 33853 ft | 498 kts | 335° |
| 2026-05-04 03:21 | 9.49958 | 16.24254 | 33852 ft | 497 kts | 335° |
| 2026-05-04 03:22 | 9.56237 | 16.21414 | 33856 ft | 497 kts | 335° |
| 2026-05-04 03:22 | 9.62557 | 16.18554 | 33849 ft | 497 kts | 335° |
| 2026-05-04 03:23 | 9.68885 | 16.15695 | 33836 ft | 497 kts | 335° |
| 2026-05-04 03:23 | 9.75205 | 16.12835 | 33848 ft | 497 kts | 335° |
| 2026-05-04 03:24 | 9.81526 | 16.09978 | 33854 ft | 498 kts | 335° |
| 2026-05-04 03:24 | 9.87838 | 16.07120 | 33842 ft | 496 kts | 335° |
| 2026-05-04 03:25 | 9.94139 | 16.04269 | 33848 ft | 496 kts | 335° |
| 2026-05-04 03:25 | 10.00441 | 16.01418 | 33852 ft | 496 kts | 335° |
| 2026-05-04 03:26 | 10.06733 | 15.98571 | 33836 ft | 497 kts | 335° |
| 2026-05-04 03:26 | 10.13067 | 15.95701 | 33854 ft | 498 kts | 335° |
| 2026-05-04 03:27 | 10.19391 | 15.92834 | 33848 ft | 497 kts | 335° |
| 2026-05-04 03:27 | 10.25654 | 15.89995 | 33845 ft | 496 kts | 335° |
| 2026-05-04 03:28 | 10.31957 | 15.87128 | 33848 ft | 496 kts | 335° |
| 2026-05-04 03:28 | 10.38253 | 15.84262 | 33837 ft | 496 kts | 335° |
| 2026-05-04 03:29 | 10.44558 | 15.81394 | 33844 ft | 496 kts | 335° |
| 2026-05-04 03:29 | 10.50869 | 15.78525 | 33844 ft | 496 kts | 335° |
| 2026-05-04 03:30 | 10.57167 | 15.75660 | 33840 ft | 496 kts | 335° |
| 2026-05-04 03:30 | 10.63464 | 15.72795 | 33834 ft | 496 kts | 335° |
| 2026-05-04 03:31 | 10.69758 | 15.69929 | 33838 ft | 496 kts | 335° |
| 2026-05-04 03:31 | 10.76055 | 15.67062 | 33824 ft | 496 kts | 335° |
| 2026-05-04 03:32 | 10.82358 | 15.64190 | 33844 ft | 496 kts | 335° |
| 2026-05-04 03:32 | 10.88657 | 15.61320 | 33829 ft | 496 kts | 335° |
| 2026-05-04 03:33 | 10.93886 | 15.58934 | 33837 ft | 496 kts | 335° |
| 2026-05-04 03:33 | 11.01240 | 15.55579 | 33833 ft | 496 kts | 335° |
| 2026-05-04 03:34 | 11.07543 | 15.52702 | 33834 ft | 496 kts | 335° |
| 2026-05-04 03:34 | 11.12785 | 15.50308 | 33831 ft | 496 kts | 335° |
| 2026-05-04 03:35 | 11.19098 | 15.47424 | 33835 ft | 496 kts | 335° |
| 2026-05-04 03:35 | 11.25407 | 15.44540 | 33831 ft | 496 kts | 335° |
| 2026-05-04 03:36 | 11.31705 | 15.41661 | 33825 ft | 496 kts | 335° |
| 2026-05-04 03:36 | 11.38009 | 15.38774 | 33823 ft | 496 kts | 335° |
| 2026-05-04 03:37 | 11.44301 | 15.35892 | 33832 ft | 496 kts | 335° |
| 2026-05-04 03:37 | 11.50554 | 15.33033 | 33813 ft | 496 kts | 335° |
| 2026-05-04 03:38 | 11.56845 | 15.30149 | 33827 ft | 496 kts | 335° |
| 2026-05-04 03:38 | 11.63138 | 15.27267 | 33827 ft | 497 kts | 335° |
| 2026-05-04 03:39 | 11.69411 | 15.24394 | 33808 ft | 492 kts | 334° |
| 2026-05-04 03:39 | 11.75663 | 15.21522 | 33822 ft | 492 kts | 334° |
| 2026-05-04 03:40 | 11.81903 | 15.18655 | 33821 ft | 492 kts | 334° |
| 2026-05-04 03:40 | 11.88154 | 15.15785 | 33820 ft | 492 kts | 334° |
| 2026-05-04 03:41 | 11.94392 | 15.12920 | 33817 ft | 492 kts | 334° |
| 2026-05-04 03:41 | 12.00622 | 15.10060 | 33803 ft | 492 kts | 334° |
| 2026-05-04 03:42 | 12.06869 | 15.07192 | 33787 ft | 492 kts | 334° |
| 2026-05-04 03:42 | 12.13186 | 15.04369 | 33802 ft | 493 kts | 336° |
| 2026-05-04 03:43 | 12.19652 | 15.02116 | 33803 ft | 494 kts | 341° |
| 2026-05-04 03:43 | 12.26243 | 15.00102 | 33795 ft | 494 kts | 341° |
| 2026-05-04 03:44 | 12.32851 | 14.98094 | 33821 ft | 494 kts | 341° |
| 2026-05-04 03:44 | 12.39430 | 14.96091 | 33809 ft | 490 kts | 341° |
| 2026-05-04 03:45 | 12.45954 | 14.94095 | 33825 ft | 489 kts | 341° |
| 2026-05-04 03:45 | 12.52480 | 14.92094 | 33810 ft | 489 kts | 341° |
| 2026-05-04 03:46 | 12.58986 | 14.90100 | 33817 ft | 489 kts | 341° |
| 2026-05-04 03:46 | 12.65510 | 14.88099 | 33820 ft | 489 kts | 341° |
| 2026-05-04 03:47 | 12.72028 | 14.86099 | 33813 ft | 489 kts | 340° |
| 2026-05-04 03:47 | 12.78554 | 14.84098 | 33815 ft | 490 kts | 340° |
| 2026-05-04 03:48 | 12.85043 | 14.82104 | 33808 ft | 490 kts | 340° |
| 2026-05-04 03:48 | 12.91627 | 14.80080 | 33809 ft | 490 kts | 340° |
| 2026-05-04 03:49 | 12.98158 | 14.78072 | 33825 ft | 490 kts | 340° |
| 2026-05-04 03:49 | 13.04698 | 14.76060 | 33814 ft | 490 kts | 340° |
| 2026-05-04 03:50 | 13.11232 | 14.74052 | 33822 ft | 490 kts | 340° |
| 2026-05-04 03:50 | 13.17719 | 14.72053 | 33820 ft | 490 kts | 340° |
| 2026-05-04 03:51 | 13.24255 | 14.70038 | 33823 ft | 490 kts | 340° |
| 2026-05-04 03:51 | 13.30782 | 14.68026 | 33821 ft | 490 kts | 340° |
| 2026-05-04 03:52 | 13.37309 | 14.66012 | 33828 ft | 490 kts | 340° |
| 2026-05-04 03:52 | 13.43847 | 14.63995 | 33828 ft | 490 kts | 340° |
| 2026-05-04 03:53 | 13.50375 | 14.61981 | 33827 ft | 490 kts | 340° |
| 2026-05-04 03:53 | 13.56923 | 14.59956 | 33828 ft | 490 kts | 340° |
| 2026-05-04 03:54 | 13.63413 | 14.57949 | 33829 ft | 490 kts | 340° |
| 2026-05-04 03:54 | 13.69937 | 14.55931 | 33827 ft | 490 kts | 340° |
| 2026-05-04 03:55 | 13.76523 | 14.53893 | 33827 ft | 490 kts | 340° |
| 2026-05-04 03:55 | 13.83048 | 14.51873 | 33836 ft | 489 kts | 340° |
| 2026-05-04 03:56 | 13.89529 | 14.49865 | 33835 ft | 489 kts | 340° |
| 2026-05-04 03:56 | 13.96042 | 14.47845 | 33842 ft | 489 kts | 340° |
| 2026-05-04 03:57 | 14.02545 | 14.45829 | 33838 ft | 489 kts | 340° |
| 2026-05-04 03:57 | 14.09070 | 14.43806 | 33842 ft | 489 kts | 340° |
| 2026-05-04 03:58 | 14.18848 | 14.40774 | 33839 ft | 489 kts | 340° |
| 2026-05-04 03:58 | 14.25363 | 14.38752 | 33842 ft | 489 kts | 340° |
| 2026-05-04 03:59 | 14.31889 | 14.36727 | 33845 ft | 489 kts | 340° |
| 2026-05-04 03:59 | 14.38421 | 14.34697 | 33841 ft | 489 kts | 340° |
| 2026-05-04 04:00 | 14.44943 | 14.32660 | 33845 ft | 489 kts | 340° |
| 2026-05-04 04:00 | 14.51458 | 14.30622 | 33848 ft | 487 kts | 340° |
| 2026-05-04 04:01 | 14.57941 | 14.28597 | 33848 ft | 486 kts | 340° |
| 2026-05-04 04:01 | 14.64417 | 14.26575 | 33847 ft | 486 kts | 340° |
| 2026-05-04 04:02 | 14.70896 | 14.24552 | 33846 ft | 486 kts | 340° |
| 2026-05-04 04:02 | 14.77381 | 14.22526 | 33845 ft | 486 kts | 340° |
| 2026-05-04 04:03 | 14.83853 | 14.20502 | 33844 ft | 485 kts | 340° |
| 2026-05-04 04:03 | 14.90310 | 14.18484 | 33849 ft | 483 kts | 339° |
| 2026-05-04 04:04 | 14.96742 | 14.16470 | 33846 ft | 483 kts | 339° |
| 2026-05-04 04:04 | 15.03133 | 14.14468 | 33845 ft | 483 kts | 339° |
| 2026-05-04 04:05 | 15.09570 | 14.12450 | 33849 ft | 483 kts | 339° |
| 2026-05-04 04:05 | 15.16012 | 14.10430 | 33846 ft | 483 kts | 339° |
| 2026-05-04 04:06 | 15.22436 | 14.08415 | 33850 ft | 480 kts | 339° |
| 2026-05-04 04:06 | 15.28816 | 14.06412 | 33846 ft | 478 kts | 339° |
| 2026-05-04 04:07 | 15.35198 | 14.04406 | 33844 ft | 478 kts | 339° |
| 2026-05-04 04:07 | 15.41569 | 14.02403 | 33845 ft | 478 kts | 339° |
| 2026-05-04 04:08 | 15.47900 | 14.00411 | 33849 ft | 478 kts | 339° |
| 2026-05-04 04:08 | 15.54279 | 13.98403 | 33848 ft | 478 kts | 339° |
| 2026-05-04 04:09 | 15.60705 | 13.96380 | 33847 ft | 480 kts | 339° |
| 2026-05-04 04:09 | 15.67104 | 13.94362 | 33849 ft | 481 kts | 339° |
| 2026-05-04 04:10 | 15.73460 | 13.92357 | 33849 ft | 481 kts | 339° |
| 2026-05-04 04:10 | 15.79869 | 13.90332 | 33850 ft | 481 kts | 339° |
| 2026-05-04 04:11 | 15.86279 | 13.88305 | 33850 ft | 481 kts | 339° |
| 2026-05-04 04:11 | 15.92679 | 13.86279 | 33854 ft | 482 kts | 339° |
| 2026-05-04 04:12 | 15.99094 | 13.84246 | 33848 ft | 482 kts | 340° |
| 2026-05-04 04:12 | 16.05514 | 13.82217 | 33847 ft | 482 kts | 340° |
| 2026-05-04 04:13 | 16.11935 | 13.80185 | 33848 ft | 482 kts | 340° |
| 2026-05-04 04:13 | 16.18358 | 13.78151 | 33854 ft | 482 kts | 340° |
| 2026-05-04 04:14 | 16.23710 | 13.76454 | 33854 ft | 482 kts | 340° |
| 2026-05-04 04:14 | 16.31159 | 13.74099 | 33859 ft | 480 kts | 339° |
| 2026-05-04 04:15 | 16.37542 | 13.72069 | 33863 ft | 480 kts | 339° |
| 2026-05-04 04:15 | 16.42853 | 13.70382 | 33863 ft | 480 kts | 339° |
| 2026-05-04 04:16 | 16.49251 | 13.68351 | 33863 ft | 480 kts | 339° |
| 2026-05-04 04:16 | 16.55625 | 13.66326 | 33862 ft | 480 kts | 339° |
| 2026-05-04 04:17 | 16.62016 | 13.64287 | 33874 ft | 479 kts | 339° |
| 2026-05-04 04:17 | 16.68380 | 13.62253 | 33870 ft | 478 kts | 339° |
| 2026-05-04 04:18 | 16.74748 | 13.60218 | 33866 ft | 478 kts | 339° |
| 2026-05-04 04:18 | 16.81107 | 13.58188 | 33876 ft | 478 kts | 339° |
| 2026-05-04 04:19 | 16.87468 | 13.56157 | 33877 ft | 478 kts | 339° |
| 2026-05-04 04:19 | 16.93837 | 13.54122 | 33868 ft | 478 kts | 339° |
| 2026-05-04 04:20 | 17.00185 | 13.52093 | 33883 ft | 478 kts | 339° |
| 2026-05-04 04:20 | 17.06509 | 13.50069 | 33878 ft | 478 kts | 339° |
| 2026-05-04 04:21 | 17.12859 | 13.48037 | 33867 ft | 477 kts | 339° |
| 2026-05-04 04:21 | 17.19194 | 13.46007 | 33876 ft | 476 kts | 339° |
| 2026-05-04 04:22 | 17.25539 | 13.43974 | 33880 ft | 476 kts | 339° |
| 2026-05-04 04:22 | 17.31877 | 13.41944 | 33889 ft | 476 kts | 338° |
| 2026-05-04 04:23 | 17.38208 | 13.39913 | 33893 ft | 475 kts | 338° |
| 2026-05-04 04:23 | 17.44530 | 13.37884 | 33885 ft | 475 kts | 338° |
| 2026-05-04 04:24 | 17.50848 | 13.35854 | 33885 ft | 475 kts | 338° |
| 2026-05-04 04:24 | 17.57142 | 13.33822 | 33885 ft | 475 kts | 338° |
| 2026-05-04 04:25 | 17.63466 | 13.31778 | 33891 ft | 475 kts | 338° |
| 2026-05-04 04:25 | 17.69788 | 13.29737 | 33885 ft | 475 kts | 338° |
| 2026-05-04 04:26 | 17.76105 | 13.27699 | 33882 ft | 475 kts | 338° |
| 2026-05-04 04:26 | 17.82432 | 13.25656 | 33887 ft | 475 kts | 338° |
| 2026-05-04 04:27 | 17.88748 | 13.23616 | 33887 ft | 475 kts | 338° |
| 2026-05-04 04:27 | 17.95074 | 13.21571 | 33889 ft | 475 kts | 338° |
| 2026-05-04 04:28 | 18.01352 | 13.19538 | 33891 ft | 476 kts | 338° |
| 2026-05-04 04:28 | 18.07692 | 13.17486 | 33887 ft | 476 kts | 338° |
| 2026-05-04 04:29 | 18.14022 | 13.15436 | 33890 ft | 476 kts | 338° |
| 2026-05-04 04:29 | 18.20361 | 13.13381 | 33886 ft | 476 kts | 338° |
| 2026-05-04 04:30 | 18.26704 | 13.11323 | 33889 ft | 476 kts | 338° |
| 2026-05-04 04:30 | 18.33050 | 13.09263 | 33898 ft | 477 kts | 338° |
| 2026-05-04 04:31 | 18.39394 | 13.07205 | 33890 ft | 477 kts | 338° |
| 2026-05-04 04:31 | 18.45711 | 13.05148 | 33884 ft | 478 kts | 338° |
| 2026-05-04 04:32 | 18.52100 | 13.03069 | 33884 ft | 477 kts | 338° |
| 2026-05-04 04:32 | 18.58415 | 13.01012 | 33889 ft | 477 kts | 338° |
| 2026-05-04 04:33 | 18.64751 | 12.98948 | 33885 ft | 478 kts | 338° |
| 2026-05-04 04:33 | 18.71092 | 12.96886 | 33899 ft | 476 kts | 338° |
| 2026-05-04 04:34 | 18.77413 | 12.94822 | 33894 ft | 475 kts | 338° |
| 2026-05-04 04:34 | 18.83737 | 12.92758 | 33892 ft | 475 kts | 338° |
| 2026-05-04 04:35 | 18.90057 | 12.90693 | 33893 ft | 475 kts | 338° |
| 2026-05-04 04:35 | 18.96253 | 12.88348 | 33894 ft | 471 kts | 332° |
| 2026-05-04 04:36 | 19.02159 | 12.85393 | 33911 ft | 466 kts | 327° |
| 2026-05-04 04:36 | 19.07701 | 12.81987 | 33896 ft | 462 kts | 324° |
| 2026-05-04 04:37 | 19.18710 | 12.74970 | 33895 ft | 461 kts | 324° |
| 2026-05-04 04:38 | 19.24212 | 12.71469 | 33898 ft | 462 kts | 324° |
| 2026-05-04 04:38 | 19.29735 | 12.67954 | 33898 ft | 462 kts | 324° |
| 2026-05-04 04:39 | 19.35240 | 12.64448 | 33899 ft | 462 kts | 324° |
| 2026-05-04 04:39 | 19.40748 | 12.60943 | 33901 ft | 462 kts | 324° |
| 2026-05-04 04:40 | 19.46254 | 12.57428 | 33905 ft | 462 kts | 324° |
| 2026-05-04 04:40 | 19.51769 | 12.53905 | 33906 ft | 462 kts | 324° |
| 2026-05-04 04:41 | 19.57275 | 12.50387 | 33906 ft | 462 kts | 324° |
| 2026-05-04 04:41 | 19.62742 | 12.46891 | 33906 ft | 462 kts | 324° |
| 2026-05-04 04:42 | 19.68255 | 12.43363 | 33912 ft | 462 kts | 324° |
| 2026-05-04 04:42 | 19.73759 | 12.39842 | 33915 ft | 461 kts | 323° |
| 2026-05-04 04:43 | 19.79258 | 12.36317 | 33914 ft | 461 kts | 323° |
| 2026-05-04 04:43 | 19.84747 | 12.32793 | 33911 ft | 461 kts | 323° |
| 2026-05-04 04:44 | 19.90236 | 12.29268 | 33914 ft | 461 kts | 323° |
| 2026-05-04 04:44 | 19.95732 | 12.25737 | 33914 ft | 461 kts | 323° |
| 2026-05-04 04:45 | 20.01227 | 12.22202 | 33912 ft | 461 kts | 323° |
| 2026-05-04 04:47 | 20.20352 | 12.09882 | 33915 ft | 459 kts | 323° |
| 2026-05-04 04:47 | 20.25824 | 12.06350 | 33917 ft | 459 kts | 323° |
| 2026-05-04 04:48 | 20.31284 | 12.02825 | 33914 ft | 459 kts | 323° |
| 2026-05-04 04:49 | 20.44908 | 11.94017 | 33920 ft | 457 kts | 323° |
| 2026-05-04 04:49 | 20.50349 | 11.90495 | 33922 ft | 456 kts | 323° |
| 2026-05-04 04:50 | 20.55778 | 11.86977 | 33918 ft | 456 kts | 322° |
| 2026-05-04 04:50 | 20.61204 | 11.83447 | 33924 ft | 456 kts | 322° |
| 2026-05-04 04:51 | 20.66598 | 11.79933 | 33922 ft | 456 kts | 322° |
| 2026-05-04 04:51 | 20.72058 | 11.76380 | 33927 ft | 456 kts | 322° |
| 2026-05-04 04:52 | 20.77480 | 11.72847 | 33938 ft | 456 kts | 323° |
| 2026-05-04 04:52 | 20.82869 | 11.69337 | 33930 ft | 456 kts | 323° |
| 2026-05-04 04:53 | 20.88303 | 11.65794 | 33928 ft | 457 kts | 323° |
| 2026-05-04 04:53 | 20.93740 | 11.62248 | 33929 ft | 458 kts | 323° |
| 2026-05-04 04:54 | 20.99187 | 11.58693 | 33931 ft | 458 kts | 323° |
| 2026-05-04 04:54 | 21.04622 | 11.55144 | 33930 ft | 458 kts | 323° |
| 2026-05-04 04:55 | 21.10057 | 11.51590 | 33932 ft | 458 kts | 323° |
| 2026-05-04 04:55 | 21.15453 | 11.48052 | 33939 ft | 457 kts | 322° |
| 2026-05-04 04:56 | 21.20887 | 11.44481 | 33936 ft | 457 kts | 322° |
| 2026-05-04 04:56 | 21.26325 | 11.40910 | 33935 ft | 457 kts | 322° |
| 2026-05-04 04:57 | 21.31753 | 11.37344 | 33940 ft | 458 kts | 322° |
| 2026-05-04 04:57 | 21.37181 | 11.33776 | 33939 ft | 458 kts | 322° |
| 2026-05-04 04:58 | 21.42619 | 11.30198 | 33951 ft | 458 kts | 323° |
| 2026-05-04 04:58 | 21.48060 | 11.26616 | 33937 ft | 459 kts | 323° |
| 2026-05-04 04:59 | 21.53514 | 11.23024 | 33946 ft | 459 kts | 323° |
| 2026-05-04 04:59 | 21.58957 | 11.19435 | 33949 ft | 459 kts | 323° |
| 2026-05-04 05:00 | 21.64409 | 11.15837 | 33949 ft | 459 kts | 323° |
| 2026-05-04 05:01 | 21.72572 | 11.10443 | 33952 ft | 459 kts | 323° |
| 2026-05-04 05:01 | 21.77973 | 11.06868 | 33946 ft | 458 kts | 323° |
| 2026-05-04 05:02 | 21.82527 | 11.03853 | 33950 ft | 458 kts | 323° |
| 2026-05-04 05:02 | 21.88835 | 10.99675 | 33952 ft | 458 kts | 323° |
| 2026-05-04 05:03 | 21.93388 | 10.96656 | 33952 ft | 458 kts | 323° |
| 2026-05-04 05:04 | 22.04194 | 10.89480 | 33949 ft | 458 kts | 323° |
| 2026-05-04 05:04 | 22.09661 | 10.85844 | 33978 ft | 458 kts | 323° |
| 2026-05-04 05:06 | 22.31240 | 10.71464 | 33965 ft | 456 kts | 323° |
| 2026-05-04 05:07 | 22.36634 | 10.67861 | 33967 ft | 456 kts | 323° |
| 2026-05-04 05:07 | 22.42027 | 10.64257 | 33970 ft | 456 kts | 323° |
| 2026-05-04 05:09 | 22.66168 | 10.48161 | 33984 ft | 452 kts | 324° |
| 2026-05-04 05:10 | 22.71627 | 10.44764 | 33983 ft | 453 kts | 325° |
| 2026-05-04 05:10 | 22.77062 | 10.41385 | 34012 ft | 452 kts | 325° |
| 2026-05-04 05:11 | 22.82509 | 10.37985 | 33997 ft | 451 kts | 325° |
| 2026-05-04 05:11 | 22.87949 | 10.34584 | 33991 ft | 451 kts | 325° |
| 2026-05-04 05:12 | 22.93395 | 10.31173 | 33994 ft | 451 kts | 325° |
| 2026-05-04 05:12 | 22.98840 | 10.27759 | 33996 ft | 451 kts | 325° |
| 2026-05-04 05:13 | 23.04283 | 10.24343 | 34002 ft | 451 kts | 325° |
| 2026-05-04 05:13 | 23.09681 | 10.20951 | 33996 ft | 451 kts | 325° |
| 2026-05-04 05:14 | 23.15162 | 10.17502 | 34006 ft | 452 kts | 325° |
| 2026-05-04 05:14 | 23.20566 | 10.14102 | 34003 ft | 452 kts | 325° |
| 2026-05-04 05:15 | 23.26017 | 10.10669 | 33991 ft | 452 kts | 325° |
| 2026-05-04 05:15 | 23.31457 | 10.07239 | 34013 ft | 452 kts | 325° |
| 2026-05-04 05:16 | 23.36894 | 10.03807 | 33996 ft | 452 kts | 325° |
| 2026-05-04 05:16 | 23.42331 | 10.00372 | 34010 ft | 452 kts | 325° |
| 2026-05-04 05:17 | 23.47760 | 9.96936 | 34012 ft | 452 kts | 325° |
| 2026-05-04 05:17 | 23.53197 | 9.93495 | 34010 ft | 452 kts | 325° |
| 2026-05-04 05:18 | 23.58644 | 9.90045 | 34012 ft | 452 kts | 325° |
| 2026-05-04 05:18 | 23.64080 | 9.86598 | 34012 ft | 452 kts | 325° |
| 2026-05-04 05:19 | 23.69515 | 9.83148 | 34009 ft | 452 kts | 325° |
| 2026-05-04 05:19 | 23.74952 | 9.79692 | 34013 ft | 451 kts | 325° |
| 2026-05-04 05:20 | 23.80373 | 9.76244 | 34023 ft | 450 kts | 325° |
| 2026-05-04 05:20 | 23.85789 | 9.72796 | 34022 ft | 450 kts | 325° |
| 2026-05-04 05:21 | 23.91203 | 9.69346 | 34022 ft | 450 kts | 325° |
| 2026-05-04 05:21 | 23.96624 | 9.65890 | 34021 ft | 450 kts | 325° |
| 2026-05-04 05:22 | 24.02028 | 9.62441 | 34027 ft | 450 kts | 325° |
| 2026-05-04 05:22 | 24.07438 | 9.58985 | 34040 ft | 450 kts | 325° |
| 2026-05-04 05:23 | 24.12806 | 9.55556 | 34066 ft | 449 kts | 325° |
| 2026-05-04 05:23 | 24.16424 | 9.53241 | 34057 ft | 449 kts | 325° |